sensor_id;sensor_type;location;lat;lon;timestamp;P1;durP1;ratioP1;P2;durP2;ratioP2
26486;SDS011;14425;56.136;40.360;2023-04-25T00:01:22;5.57;;;4.07;;
26486;SDS011;14425;56.136;40.360;2023-04-25T00:03:48;4.50;;;3.53;;
26486;SDS011;14425;56.136;40.360;2023-04-25T00:06:14;7.65;;;4.13;;
26486;SDS011;14425;56.136;40.360;2023-04-25T00:08:40;6.53;;;3.78;;
26486;SDS011;14425;56.136;40.360;2023-04-25T00:11:05;6.00;;;3.88;;
26486;SDS011;14425;56.136;40.360;2023-04-25T00:13:31;6.55;;;3.80;;
26486;SDS011;14425;56.136;40.360;2023-04-25T00:15:57;10.07;;;4.78;;
26486;SDS011;14425;56.136;40.360;2023-04-25T00:18:23;11.05;;;4.50;;
26486;SDS011;14425;56.136;40.360;2023-04-25T00:20:49;8.60;;;4.00;;
26486;SDS011;14425;56.136;40.360;2023-04-25T00:23:15;5.88;;;3.75;;
26486;SDS011;14425;56.136;40.360;2023-04-25T00:25:45;4.55;;;3.70;;
26486;SDS011;14425;56.136;40.360;2023-04-25T00:28:11;3.58;;;3.28;;
26486;SDS011;14425;56.136;40.360;2023-04-25T00:30:38;7.30;;;3.95;;
26486;SDS011;14425;56.136;40.360;2023-04-25T00:33:04;5.93;;;3.60;;
26486;SDS011;14425;56.136;40.360;2023-04-25T00:35:29;4.05;;;3.50;;
26486;SDS011;14425;56.136;40.360;2023-04-25T00:37:55;6.88;;;3.45;;
26486;SDS011;14425;56.136;40.360;2023-04-25T00:40:20;4.07;;;3.50;;
26486;SDS011;14425;56.136;40.360;2023-04-25T00:42:46;4.03;;;3.03;;
26486;SDS011;14425;56.136;40.360;2023-04-25T00:45:13;6.60;;;3.45;;
26486;SDS011;14425;56.136;40.360;2023-04-25T00:47:40;5.40;;;2.97;;
26486;SDS011;14425;56.136;40.360;2023-04-25T00:50:06;4.18;;;3.08;;
26486;SDS011;14425;56.136;40.360;2023-04-25T00:52:33;4.30;;;2.88;;
26486;SDS011;14425;56.136;40.360;2023-04-25T00:54:59;3.00;;;2.70;;
26486;SDS011;14425;56.136;40.360;2023-04-25T00:57:25;7.22;;;2.95;;
26486;SDS011;14425;56.136;40.360;2023-04-25T00:59:51;4.72;;;3.10;;
26486;SDS011;14425;56.136;40.360;2023-04-25T01:02:18;7.20;;;3.65;;
26486;SDS011;14425;56.136;40.360;2023-04-25T01:04:45;5.45;;;4.28;;
26486;SDS011;14425;56.136;40.360;2023-04-25T01:07:12;4.22;;;3.70;;
26486;SDS011;14425;56.136;40.360;2023-04-25T01:09:38;5.57;;;3.47;;
26486;SDS011;14425;56.136;40.360;2023-04-25T01:12:03;5.70;;;3.17;;
26486;SDS011;14425;56.136;40.360;2023-04-25T01:14:29;5.95;;;3.58;;
26486;SDS011;14425;56.136;40.360;2023-04-25T01:16:55;6.93;;;3.20;;
26486;SDS011;14425;56.136;40.360;2023-04-25T01:19:20;3.20;;;2.50;;
26486;SDS011;14425;56.136;40.360;2023-04-25T01:21:46;6.43;;;3.40;;
26486;SDS011;14425;56.136;40.360;2023-04-25T01:24:12;4.63;;;3.10;;
26486;SDS011;14425;56.136;40.360;2023-04-25T01:26:38;6.07;;;3.55;;
26486;SDS011;14425;56.136;40.360;2023-04-25T01:29:09;5.43;;;3.42;;
26486;SDS011;14425;56.136;40.360;2023-04-25T01:31:35;5.80;;;3.38;;
26486;SDS011;14425;56.136;40.360;2023-04-25T01:34:02;5.32;;;3.22;;
26486;SDS011;14425;56.136;40.360;2023-04-25T01:36:28;6.55;;;3.38;;
26486;SDS011;14425;56.136;40.360;2023-04-25T01:38:53;4.35;;;3.40;;
26486;SDS011;14425;56.136;40.360;2023-04-25T01:41:20;8.32;;;3.47;;
26486;SDS011;14425;56.136;40.360;2023-04-25T01:43:48;6.25;;;3.80;;
26486;SDS011;14425;56.136;40.360;2023-04-25T01:46:13;6.70;;;3.60;;
26486;SDS011;14425;56.136;40.360;2023-04-25T01:48:39;5.85;;;3.38;;
26486;SDS011;14425;56.136;40.360;2023-04-25T01:51:05;7.28;;;3.28;;
26486;SDS011;14425;56.136;40.360;2023-04-25T01:53:31;8.65;;;3.60;;
26486;SDS011;14425;56.136;40.360;2023-04-25T01:55:57;6.28;;;3.88;;
26486;SDS011;14425;56.136;40.360;2023-04-25T01:58:22;7.25;;;3.80;;
26486;SDS011;14425;56.136;40.360;2023-04-25T02:00:48;7.78;;;3.63;;
26486;SDS011;14425;56.136;40.360;2023-04-25T02:03:13;3.40;;;3.10;;
26486;SDS011;14425;56.136;40.360;2023-04-25T02:05:39;8.88;;;3.75;;
26486;SDS011;14425;56.136;40.360;2023-04-25T02:08:06;5.75;;;4.10;;
26486;SDS011;14425;56.136;40.360;2023-04-25T02:10:32;4.85;;;4.03;;
26486;SDS011;14425;56.136;40.360;2023-04-25T02:12:59;8.98;;;3.58;;
26486;SDS011;14425;56.136;40.360;2023-04-25T02:15:25;7.90;;;3.85;;
26486;SDS011;14425;56.136;40.360;2023-04-25T02:18:10;5.55;;;3.47;;
26486;SDS011;14425;56.136;40.360;2023-04-25T02:20:36;4.88;;;3.42;;
26486;SDS011;14425;56.136;40.360;2023-04-25T02:23:02;6.47;;;3.50;;
26486;SDS011;14425;56.136;40.360;2023-04-25T02:25:28;4.72;;;3.28;;
26486;SDS011;14425;56.136;40.360;2023-04-25T02:27:53;5.05;;;3.92;;
26486;SDS011;14425;56.136;40.360;2023-04-25T02:30:19;7.90;;;3.45;;
26486;SDS011;14425;56.136;40.360;2023-04-25T02:32:45;6.72;;;3.83;;
26486;SDS011;14425;56.136;40.360;2023-04-25T02:35:11;7.78;;;3.80;;
26486;SDS011;14425;56.136;40.360;2023-04-25T02:37:37;7.97;;;4.35;;
26486;SDS011;14425;56.136;40.360;2023-04-25T02:40:04;5.65;;;3.63;;
26486;SDS011;14425;56.136;40.360;2023-04-25T02:42:30;6.97;;;4.03;;
26486;SDS011;14425;56.136;40.360;2023-04-25T02:44:55;9.05;;;4.18;;
26486;SDS011;14425;56.136;40.360;2023-04-25T02:47:21;6.00;;;4.15;;
26486;SDS011;14425;56.136;40.360;2023-04-25T02:49:47;10.73;;;3.70;;
26486;SDS011;14425;56.136;40.360;2023-04-25T02:52:12;9.27;;;4.60;;
26486;SDS011;14425;56.136;40.360;2023-04-25T02:54:39;6.07;;;3.50;;
26486;SDS011;14425;56.136;40.360;2023-04-25T02:57:07;6.13;;;4.13;;
26486;SDS011;14425;56.136;40.360;2023-04-25T02:59:33;8.07;;;4.03;;
26486;SDS011;14425;56.136;40.360;2023-04-25T03:01:59;7.15;;;4.93;;
26486;SDS011;14425;56.136;40.360;2023-04-25T03:04:24;9.38;;;3.72;;
26486;SDS011;14425;56.136;40.360;2023-04-25T03:06:50;5.05;;;3.47;;
26486;SDS011;14425;56.136;40.360;2023-04-25T03:09:16;6.35;;;4.40;;
26486;SDS011;14425;56.136;40.360;2023-04-25T03:11:42;5.97;;;4.30;;
26486;SDS011;14425;56.136;40.360;2023-04-25T03:14:09;9.27;;;4.45;;
26486;SDS011;14425;56.136;40.360;2023-04-25T03:16:35;8.63;;;4.50;;
26486;SDS011;14425;56.136;40.360;2023-04-25T03:19:00;7.60;;;4.40;;
26486;SDS011;14425;56.136;40.360;2023-04-25T03:21:26;10.68;;;4.13;;
26486;SDS011;14425;56.136;40.360;2023-04-25T03:23:52;6.75;;;4.20;;
26486;SDS011;14425;56.136;40.360;2023-04-25T03:26:17;6.55;;;4.88;;
26486;SDS011;14425;56.136;40.360;2023-04-25T03:28:43;8.90;;;4.43;;
26486;SDS011;14425;56.136;40.360;2023-04-25T03:31:08;8.38;;;4.53;;
26486;SDS011;14425;56.136;40.360;2023-04-25T03:33:34;7.13;;;4.45;;
26486;SDS011;14425;56.136;40.360;2023-04-25T03:36:00;7.97;;;4.47;;
26486;SDS011;14425;56.136;40.360;2023-04-25T03:38:25;8.10;;;4.72;;
26486;SDS011;14425;56.136;40.360;2023-04-25T03:40:51;6.97;;;4.22;;
26486;SDS011;14425;56.136;40.360;2023-04-25T03:43:17;11.43;;;4.50;;
26486;SDS011;14425;56.136;40.360;2023-04-25T03:45:42;8.32;;;4.13;;
26486;SDS011;14425;56.136;40.360;2023-04-25T03:48:08;4.40;;;4.00;;
26486;SDS011;14425;56.136;40.360;2023-04-25T03:50:34;8.85;;;3.95;;
26486;SDS011;14425;56.136;40.360;2023-04-25T03:53:00;9.40;;;4.15;;
26486;SDS011;14425;56.136;40.360;2023-04-25T03:55:25;10.38;;;4.30;;
26486;SDS011;14425;56.136;40.360;2023-04-25T03:57:51;7.82;;;3.85;;
26486;SDS011;14425;56.136;40.360;2023-04-25T04:00:16;7.28;;;4.05;;
26486;SDS011;14425;56.136;40.360;2023-04-25T04:02:42;8.43;;;4.18;;
26486;SDS011;14425;56.136;40.360;2023-04-25T04:05:08;8.60;;;4.28;;
26486;SDS011;14425;56.136;40.360;2023-04-25T04:07:34;6.25;;;4.05;;
26486;SDS011;14425;56.136;40.360;2023-04-25T04:10:05;7.40;;;5.00;;
26486;SDS011;14425;56.136;40.360;2023-04-25T04:12:32;8.90;;;4.43;;
26486;SDS011;14425;56.136;40.360;2023-04-25T04:14:58;11.60;;;5.47;;
26486;SDS011;14425;56.136;40.360;2023-04-25T04:17:24;9.18;;;3.97;;
26486;SDS011;14425;56.136;40.360;2023-04-25T04:19:50;8.95;;;4.05;;
26486;SDS011;14425;56.136;40.360;2023-04-25T04:22:16;5.50;;;4.30;;
26486;SDS011;14425;56.136;40.360;2023-04-25T04:24:41;8.88;;;4.15;;
26486;SDS011;14425;56.136;40.360;2023-04-25T04:27:09;9.68;;;4.43;;
26486;SDS011;14425;56.136;40.360;2023-04-25T04:29:35;8.77;;;3.65;;
26486;SDS011;14425;56.136;40.360;2023-04-25T04:32:01;3.58;;;3.22;;
26486;SDS011;14425;56.136;40.360;2023-04-25T04:34:27;9.48;;;4.07;;
26486;SDS011;14425;56.136;40.360;2023-04-25T04:36:53;5.13;;;3.42;;
26486;SDS011;14425;56.136;40.360;2023-04-25T04:39:19;12.45;;;4.28;;
26486;SDS011;14425;56.136;40.360;2023-04-25T04:41:45;13.18;;;4.93;;
26486;SDS011;14425;56.136;40.360;2023-04-25T04:44:11;7.22;;;4.10;;
26486;SDS011;14425;56.136;40.360;2023-04-25T04:46:37;8.13;;;4.28;;
26486;SDS011;14425;56.136;40.360;2023-04-25T04:49:10;7.90;;;4.82;;
26486;SDS011;14425;56.136;40.360;2023-04-25T04:51:36;8.65;;;3.92;;
26486;SDS011;14425;56.136;40.360;2023-04-25T04:54:02;8.25;;;3.70;;
26486;SDS011;14425;56.136;40.360;2023-04-25T04:56:29;5.18;;;3.67;;
26486;SDS011;14425;56.136;40.360;2023-04-25T04:58:56;8.10;;;3.97;;
26486;SDS011;14425;56.136;40.360;2023-04-25T05:01:22;6.90;;;3.75;;
26486;SDS011;14425;56.136;40.360;2023-04-25T05:03:48;13.02;;;3.78;;
26486;SDS011;14425;56.136;40.360;2023-04-25T05:06:14;12.18;;;4.07;;
26486;SDS011;14425;56.136;40.360;2023-04-25T05:08:41;14.25;;;5.18;;
26486;SDS011;14425;56.136;40.360;2023-04-25T05:11:06;11.65;;;4.28;;
26486;SDS011;14425;56.136;40.360;2023-04-25T05:13:32;12.13;;;4.45;;
26486;SDS011;14425;56.136;40.360;2023-04-25T05:15:57;8.48;;;4.20;;
26486;SDS011;14425;56.136;40.360;2023-04-25T05:18:23;8.93;;;4.13;;
26486;SDS011;14425;56.136;40.360;2023-04-25T05:20:49;6.93;;;3.45;;
26486;SDS011;14425;56.136;40.360;2023-04-25T05:23:14;7.38;;;3.97;;
26486;SDS011;14425;56.136;40.360;2023-04-25T05:25:40;6.78;;;4.18;;
26486;SDS011;14425;56.136;40.360;2023-04-25T05:28:06;10.18;;;4.22;;
26486;SDS011;14425;56.136;40.360;2023-04-25T05:30:32;4.80;;;4.10;;
26486;SDS011;14425;56.136;40.360;2023-04-25T05:32:57;6.72;;;4.00;;
26486;SDS011;14425;56.136;40.360;2023-04-25T05:35:23;5.90;;;4.00;;
26486;SDS011;14425;56.136;40.360;2023-04-25T05:37:48;5.78;;;3.75;;
26486;SDS011;14425;56.136;40.360;2023-04-25T05:40:14;8.23;;;4.60;;
26486;SDS011;14425;56.136;40.360;2023-04-25T05:42:39;8.70;;;4.70;;
26486;SDS011;14425;56.136;40.360;2023-04-25T05:45:05;4.30;;;3.78;;
26486;SDS011;14425;56.136;40.360;2023-04-25T05:47:32;11.25;;;3.95;;
26486;SDS011;14425;56.136;40.360;2023-04-25T05:49:57;7.80;;;4.70;;
26486;SDS011;14425;56.136;40.360;2023-04-25T05:52:23;9.13;;;4.03;;
26486;SDS011;14425;56.136;40.360;2023-04-25T05:54:48;9.93;;;4.15;;
26486;SDS011;14425;56.136;40.360;2023-04-25T05:57:24;11.45;;;3.88;;
26486;SDS011;14425;56.136;40.360;2023-04-25T05:59:51;5.53;;;3.33;;
26486;SDS011;14425;56.136;40.360;2023-04-25T06:02:17;7.47;;;2.97;;
26486;SDS011;14425;56.136;40.360;2023-04-25T06:04:46;10.18;;;3.58;;
26486;SDS011;14425;56.136;40.360;2023-04-25T06:07:14;3.88;;;3.13;;
26486;SDS011;14425;56.136;40.360;2023-04-25T06:09:40;10.50;;;3.67;;
26486;SDS011;14425;56.136;40.360;2023-04-25T06:12:05;7.38;;;3.40;;
26486;SDS011;14425;56.136;40.360;2023-04-25T06:14:32;7.20;;;3.97;;
26486;SDS011;14425;56.136;40.360;2023-04-25T06:16:58;6.40;;;3.33;;
26486;SDS011;14425;56.136;40.360;2023-04-25T06:19:24;4.15;;;2.67;;
26486;SDS011;14425;56.136;40.360;2023-04-25T06:21:50;3.60;;;2.95;;
26486;SDS011;14425;56.136;40.360;2023-04-25T06:24:15;3.83;;;2.83;;
26486;SDS011;14425;56.136;40.360;2023-04-25T06:26:41;5.30;;;2.63;;
26486;SDS011;14425;56.136;40.360;2023-04-25T06:29:06;6.38;;;2.85;;
26486;SDS011;14425;56.136;40.360;2023-04-25T06:31:32;6.15;;;2.83;;
26486;SDS011;14425;56.136;40.360;2023-04-25T06:33:58;6.15;;;2.88;;
26486;SDS011;14425;56.136;40.360;2023-04-25T06:36:24;4.75;;;2.90;;
26486;SDS011;14425;56.136;40.360;2023-04-25T06:38:53;9.18;;;2.63;;
26486;SDS011;14425;56.136;40.360;2023-04-25T06:41:18;3.25;;;2.40;;
26486;SDS011;14425;56.136;40.360;2023-04-25T06:43:44;6.90;;;2.40;;
26486;SDS011;14425;56.136;40.360;2023-04-25T06:46:10;5.20;;;2.10;;
26486;SDS011;14425;56.136;40.360;2023-04-25T06:48:36;3.95;;;2.50;;
26486;SDS011;14425;56.136;40.360;2023-04-25T06:51:01;4.88;;;2.42;;
26486;SDS011;14425;56.136;40.360;2023-04-25T06:53:27;8.80;;;3.17;;
26486;SDS011;14425;56.136;40.360;2023-04-25T06:55:53;4.50;;;2.63;;
26486;SDS011;14425;56.136;40.360;2023-04-25T06:58:18;7.22;;;2.42;;
26486;SDS011;14425;56.136;40.360;2023-04-25T07:00:44;8.65;;;2.80;;
26486;SDS011;14425;56.136;40.360;2023-04-25T07:03:09;6.03;;;2.15;;
26486;SDS011;14425;56.136;40.360;2023-04-25T07:05:35;4.22;;;2.60;;
26486;SDS011;14425;56.136;40.360;2023-04-25T07:08:01;5.15;;;2.47;;
26486;SDS011;14425;56.136;40.360;2023-04-25T07:10:27;5.82;;;2.60;;
26486;SDS011;14425;56.136;40.360;2023-04-25T07:12:53;8.60;;;2.63;;
26486;SDS011;14425;56.136;40.360;2023-04-25T07:15:18;9.30;;;2.40;;
26486;SDS011;14425;56.136;40.360;2023-04-25T07:17:44;5.57;;;2.17;;
26486;SDS011;14425;56.136;40.360;2023-04-25T07:20:10;4.68;;;2.20;;
26486;SDS011;14425;56.136;40.360;2023-04-25T07:22:35;3.33;;;2.10;;
26486;SDS011;14425;56.136;40.360;2023-04-25T07:25:01;2.15;;;1.90;;
26486;SDS011;14425;56.136;40.360;2023-04-25T07:27:29;5.25;;;2.20;;
26486;SDS011;14425;56.136;40.360;2023-04-25T07:29:55;2.70;;;1.90;;
26486;SDS011;14425;56.136;40.360;2023-04-25T07:32:20;4.07;;;2.28;;
26486;SDS011;14425;56.136;40.360;2023-04-25T07:34:46;4.53;;;2.33;;
26486;SDS011;14425;56.136;40.360;2023-04-25T07:37:11;5.35;;;2.03;;
26486;SDS011;14425;56.136;40.360;2023-04-25T07:39:37;3.38;;;2.10;;
26486;SDS011;14425;56.136;40.360;2023-04-25T07:42:03;3.42;;;2.17;;
26486;SDS011;14425;56.136;40.360;2023-04-25T07:44:29;4.32;;;2.17;;
26486;SDS011;14425;56.136;40.360;2023-04-25T07:46:55;5.85;;;2.17;;
26486;SDS011;14425;56.136;40.360;2023-04-25T07:49:21;5.03;;;2.13;;
26486;SDS011;14425;56.136;40.360;2023-04-25T07:51:47;4.65;;;2.55;;
26486;SDS011;14425;56.136;40.360;2023-04-25T07:54:13;4.15;;;2.25;;
26486;SDS011;14425;56.136;40.360;2023-04-25T07:56:39;5.15;;;2.90;;
26486;SDS011;14425;56.136;40.360;2023-04-25T07:59:05;3.67;;;2.08;;
26486;SDS011;14425;56.136;40.360;2023-04-25T08:01:31;2.10;;;1.85;;
26486;SDS011;14425;56.136;40.360;2023-04-25T08:03:56;5.68;;;2.70;;
26486;SDS011;14425;56.136;40.360;2023-04-25T08:06:22;8.52;;;2.45;;
26486;SDS011;14425;56.136;40.360;2023-04-25T08:08:47;2.55;;;1.92;;
26486;SDS011;14425;56.136;40.360;2023-04-25T08:11:14;2.60;;;2.40;;
26486;SDS011;14425;56.136;40.360;2023-04-25T08:13:41;3.25;;;2.13;;
26486;SDS011;14425;56.136;40.360;2023-04-25T08:16:06;7.57;;;2.63;;
26486;SDS011;14425;56.136;40.360;2023-04-25T08:18:32;4.97;;;2.45;;
26486;SDS011;14425;56.136;40.360;2023-04-25T08:20:57;3.05;;;2.20;;
26486;SDS011;14425;56.136;40.360;2023-04-25T08:23:23;4.78;;;2.38;;
26486;SDS011;14425;56.136;40.360;2023-04-25T08:25:48;3.58;;;2.22;;
26486;SDS011;14425;56.136;40.360;2023-04-25T08:28:14;7.95;;;2.58;;
26486;SDS011;14425;56.136;40.360;2023-04-25T08:30:40;8.65;;;2.60;;
26486;SDS011;14425;56.136;40.360;2023-04-25T08:33:05;5.22;;;2.53;;
26486;SDS011;14425;56.136;40.360;2023-04-25T08:35:31;12.80;;;2.33;;
26486;SDS011;14425;56.136;40.360;2023-04-25T08:37:58;6.70;;;2.30;;
26486;SDS011;14425;56.136;40.360;2023-04-25T08:40:27;7.45;;;3.60;;
26486;SDS011;14425;56.136;40.360;2023-04-25T08:42:56;2.88;;;2.53;;
26486;SDS011;14425;56.136;40.360;2023-04-25T08:45:24;7.55;;;3.30;;
26486;SDS011;14425;56.136;40.360;2023-04-25T08:47:53;6.07;;;2.75;;
26486;SDS011;14425;56.136;40.360;2023-04-25T08:50:19;7.07;;;2.97;;
26486;SDS011;14425;56.136;40.360;2023-04-25T08:52:47;8.52;;;2.63;;
26486;SDS011;14425;56.136;40.360;2023-04-25T08:55:17;8.05;;;2.90;;
26486;SDS011;14425;56.136;40.360;2023-04-25T08:57:45;3.90;;;2.55;;
26486;SDS011;14425;56.136;40.360;2023-04-25T09:00:12;3.25;;;2.72;;
26486;SDS011;14425;56.136;40.360;2023-04-25T09:02:39;2.80;;;2.38;;
26486;SDS011;14425;56.136;40.360;2023-04-25T09:05:07;5.35;;;2.53;;
26486;SDS011;14425;56.136;40.360;2023-04-25T09:07:34;4.25;;;2.72;;
26486;SDS011;14425;56.136;40.360;2023-04-25T09:10:00;5.60;;;2.80;;
26486;SDS011;14425;56.136;40.360;2023-04-25T09:12:29;2.42;;;2.22;;
26486;SDS011;14425;56.136;40.360;2023-04-25T09:15:03;2.80;;;2.38;;
26486;SDS011;14425;56.136;40.360;2023-04-25T09:17:33;3.30;;;2.70;;
26486;SDS011;14425;56.136;40.360;2023-04-25T09:20:09;3.13;;;2.88;;
26486;SDS011;14425;56.136;40.360;2023-04-25T09:22:36;5.55;;;2.40;;
26486;SDS011;14425;56.136;40.360;2023-04-25T09:25:11;6.60;;;2.75;;
26486;SDS011;14425;56.136;40.360;2023-04-25T09:27:51;3.95;;;2.88;;
26486;SDS011;14425;56.136;40.360;2023-04-25T09:30:18;3.72;;;2.15;;
26486;SDS011;14425;56.136;40.360;2023-04-25T09:32:44;6.90;;;2.70;;
26486;SDS011;14425;56.136;40.360;2023-04-25T09:35:10;5.93;;;2.63;;
26486;SDS011;14425;56.136;40.360;2023-04-25T09:37:36;4.53;;;2.15;;
26486;SDS011;14425;56.136;40.360;2023-04-25T09:40:05;4.88;;;2.40;;
26486;SDS011;14425;56.136;40.360;2023-04-25T09:42:32;3.70;;;2.20;;
26486;SDS011;14425;56.136;40.360;2023-04-25T09:45:00;3.58;;;2.33;;
26486;SDS011;14425;56.136;40.360;2023-04-25T09:47:31;3.60;;;2.47;;
26486;SDS011;14425;56.136;40.360;2023-04-25T09:49:57;2.75;;;2.50;;
26486;SDS011;14425;56.136;40.360;2023-04-25T09:52:23;3.20;;;2.33;;
26486;SDS011;14425;56.136;40.360;2023-04-25T09:54:50;2.65;;;2.45;;
26486;SDS011;14425;56.136;40.360;2023-04-25T09:57:18;4.80;;;2.45;;
26486;SDS011;14425;56.136;40.360;2023-04-25T09:59:49;4.97;;;2.20;;
26486;SDS011;14425;56.136;40.360;2023-04-25T10:02:17;3.83;;;2.58;;
26486;SDS011;14425;56.136;40.360;2023-04-25T10:04:53;4.07;;;2.27;;
26486;SDS011;14425;56.136;40.360;2023-04-25T10:07:22;3.90;;;2.30;;
26486;SDS011;14425;56.136;40.360;2023-04-25T10:09:54;2.65;;;1.95;;
26486;SDS011;14425;56.136;40.360;2023-04-25T10:12:40;2.50;;;2.25;;
26486;SDS011;14425;56.136;40.360;2023-04-25T10:15:08;7.18;;;2.30;;
26486;SDS011;14425;56.136;40.360;2023-04-25T10:17:35;4.03;;;2.15;;
26486;SDS011;14425;56.136;40.360;2023-04-25T10:20:04;6.28;;;1.98;;
26486;SDS011;14425;56.136;40.360;2023-04-25T10:22:37;5.75;;;2.47;;
26486;SDS011;14425;56.136;40.360;2023-04-25T10:25:06;3.88;;;2.03;;
26486;SDS011;14425;56.136;40.360;2023-04-25T10:27:33;7.13;;;1.90;;
26486;SDS011;14425;56.136;40.360;2023-04-25T10:30:09;2.90;;;1.90;;
26486;SDS011;14425;56.136;40.360;2023-04-25T10:32:39;3.63;;;1.98;;
26486;SDS011;14425;56.136;40.360;2023-04-25T10:40:34;4.95;;;1.80;;
26486;SDS011;14425;56.136;40.360;2023-04-25T10:45:56;2.70;;;1.92;;
26486;SDS011;14425;56.136;40.360;2023-04-25T10:48:25;4.72;;;1.98;;
26486;SDS011;14425;56.136;40.360;2023-04-25T10:51:29;6.17;;;1.83;;
26486;SDS011;14425;56.136;40.360;2023-04-25T10:56:21;3.67;;;2.13;;
26486;SDS011;14425;56.136;40.360;2023-04-25T10:58:47;3.97;;;2.25;;
26486;SDS011;14425;56.136;40.360;2023-04-25T11:01:14;3.05;;;2.05;;
26486;SDS011;14425;56.136;40.360;2023-04-25T11:03:56;2.65;;;1.98;;
26486;SDS011;14425;56.136;40.360;2023-04-25T11:06:25;2.35;;;2.05;;
26486;SDS011;14425;56.136;40.360;2023-04-25T11:08:59;1.88;;;1.60;;
26486;SDS011;14425;56.136;40.360;2023-04-25T11:11:26;7.57;;;1.95;;
26486;SDS011;14425;56.136;40.360;2023-04-25T11:13:53;10.63;;;2.20;;
26486;SDS011;14425;56.136;40.360;2023-04-25T11:16:19;3.35;;;1.63;;
26486;SDS011;14425;56.136;40.360;2023-04-25T11:18:44;2.35;;;2.13;;
26486;SDS011;14425;56.136;40.360;2023-04-25T11:21:11;7.45;;;2.45;;
26486;SDS011;14425;56.136;40.360;2023-04-25T11:23:37;5.15;;;1.80;;
26486;SDS011;14425;56.136;40.360;2023-04-25T11:26:03;3.13;;;1.80;;
26486;SDS011;14425;56.136;40.360;2023-04-25T11:28:29;9.18;;;2.40;;
26486;SDS011;14425;56.136;40.360;2023-04-25T11:30:55;3.63;;;2.03;;
26486;SDS011;14425;56.136;40.360;2023-04-25T11:33:25;2.95;;;2.10;;
26486;SDS011;14425;56.136;40.360;2023-04-25T11:35:55;3.83;;;1.98;;
26486;SDS011;14425;56.136;40.360;2023-04-25T11:38:24;4.35;;;1.77;;
26486;SDS011;14425;56.136;40.360;2023-04-25T11:40:54;6.53;;;1.98;;
26486;SDS011;14425;56.136;40.360;2023-04-25T11:43:20;3.88;;;1.77;;
26486;SDS011;14425;56.136;40.360;2023-04-25T11:45:47;2.00;;;1.70;;
26486;SDS011;14425;56.136;40.360;2023-04-25T11:48:17;2.13;;;1.92;;
26486;SDS011;14425;56.136;40.360;2023-04-25T11:50:43;3.15;;;2.00;;
26486;SDS011;14425;56.136;40.360;2023-04-25T11:53:10;4.05;;;1.70;;
26486;SDS011;14425;56.136;40.360;2023-04-25T11:55:36;2.53;;;1.95;;
26486;SDS011;14425;56.136;40.360;2023-04-25T11:58:05;3.17;;;1.80;;
26486;SDS011;14425;56.136;40.360;2023-04-25T12:00:31;4.00;;;2.30;;
26486;SDS011;14425;56.136;40.360;2023-04-25T12:02:58;4.25;;;2.20;;
26486;SDS011;14425;56.136;40.360;2023-04-25T12:05:24;4.80;;;1.92;;
26486;SDS011;14425;56.136;40.360;2023-04-25T12:07:51;4.47;;;1.70;;
26486;SDS011;14425;56.136;40.360;2023-04-25T12:10:17;4.82;;;2.42;;
26486;SDS011;14425;56.136;40.360;2023-04-25T12:12:47;3.10;;;1.85;;
26486;SDS011;14425;56.136;40.360;2023-04-25T12:15:14;5.22;;;1.60;;
26486;SDS011;14425;56.136;40.360;2023-04-25T12:17:46;3.30;;;1.90;;
26486;SDS011;14425;56.136;40.360;2023-04-25T12:20:13;3.45;;;1.23;;
26486;SDS011;14425;56.136;40.360;2023-04-25T12:22:41;3.30;;;1.55;;
26486;SDS011;14425;56.136;40.360;2023-04-25T12:25:17;1.75;;;1.63;;
26486;SDS011;14425;56.136;40.360;2023-04-25T12:28:18;5.78;;;1.70;;
26486;SDS011;14425;56.136;40.360;2023-04-25T12:33:20;6.85;;;1.60;;
26486;SDS011;14425;56.136;40.360;2023-04-25T12:35:47;7.68;;;2.90;;
26486;SDS011;14425;56.136;40.360;2023-04-25T12:38:25;4.20;;;2.00;;
26486;SDS011;14425;56.136;40.360;2023-04-25T12:40:52;3.90;;;2.13;;
26486;SDS011;14425;56.136;40.360;2023-04-25T12:43:18;6.70;;;2.00;;
26486;SDS011;14425;56.136;40.360;2023-04-25T12:45:47;2.80;;;1.80;;
26486;SDS011;14425;56.136;40.360;2023-04-25T12:48:14;2.05;;;1.70;;
26486;SDS011;14425;56.136;40.360;2023-04-25T12:50:40;2.90;;;1.60;;
26486;SDS011;14425;56.136;40.360;2023-04-25T12:53:06;4.63;;;1.50;;
26486;SDS011;14425;56.136;40.360;2023-04-25T12:55:32;2.75;;;1.58;;
26486;SDS011;14425;56.136;40.360;2023-04-25T12:57:57;3.42;;;1.60;;
26486;SDS011;14425;56.136;40.360;2023-04-25T13:00:23;2.05;;;1.38;;
26486;SDS011;14425;56.136;40.360;2023-04-25T13:02:48;2.20;;;1.77;;
26486;SDS011;14425;56.136;40.360;2023-04-25T13:05:14;4.53;;;1.77;;
26486;SDS011;14425;56.136;40.360;2023-04-25T13:07:40;5.05;;;1.70;;
26486;SDS011;14425;56.136;40.360;2023-04-25T13:10:06;2.03;;;1.70;;
26486;SDS011;14425;56.136;40.360;2023-04-25T13:12:32;2.42;;;1.40;;
26486;SDS011;14425;56.136;40.360;2023-04-25T13:14:58;4.75;;;1.77;;
26486;SDS011;14425;56.136;40.360;2023-04-25T13:17:24;11.43;;;2.22;;
26486;SDS011;14425;56.136;40.360;2023-04-25T13:19:49;4.53;;;1.45;;
26486;SDS011;14425;56.136;40.360;2023-04-25T13:22:15;5.82;;;2.28;;
26486;SDS011;14425;56.136;40.360;2023-04-25T13:24:42;9.30;;;2.05;;
26486;SDS011;14425;56.136;40.360;2023-04-25T13:27:08;4.07;;;1.65;;
26486;SDS011;14425;56.136;40.360;2023-04-25T13:29:33;1.80;;;1.38;;
26486;SDS011;14425;56.136;40.360;2023-04-25T13:32:01;3.83;;;1.63;;
26486;SDS011;14425;56.136;40.360;2023-04-25T13:34:27;8.02;;;2.00;;
26486;SDS011;14425;56.136;40.360;2023-04-25T13:36:53;5.85;;;2.17;;
26486;SDS011;14425;56.136;40.360;2023-04-25T13:39:19;5.05;;;1.80;;
26486;SDS011;14425;56.136;40.360;2023-04-25T13:41:45;6.80;;;1.92;;
26486;SDS011;14425;56.136;40.360;2023-04-25T13:44:13;8.57;;;2.03;;
26486;SDS011;14425;56.136;40.360;2023-04-25T13:46:38;4.68;;;2.20;;
26486;SDS011;14425;56.136;40.360;2023-04-25T13:49:07;4.90;;;1.63;;
26486;SDS011;14425;56.136;40.360;2023-04-25T13:51:33;5.50;;;1.52;;
26486;SDS011;14425;56.136;40.360;2023-04-25T13:53:59;3.05;;;1.55;;
26486;SDS011;14425;56.136;40.360;2023-04-25T13:56:25;16.08;;;2.00;;
26486;SDS011;14425;56.136;40.360;2023-04-25T13:58:51;5.88;;;2.10;;
26486;SDS011;14425;56.136;40.360;2023-04-25T14:01:17;7.32;;;1.90;;
26486;SDS011;14425;56.136;40.360;2023-04-25T14:03:44;4.43;;;1.80;;
26486;SDS011;14425;56.136;40.360;2023-04-25T14:06:10;2.85;;;1.73;;
26486;SDS011;14425;56.136;40.360;2023-04-25T14:08:38;2.17;;;1.67;;
26486;SDS011;14425;56.136;40.360;2023-04-25T14:11:04;8.73;;;2.08;;
26486;SDS011;14425;56.136;40.360;2023-04-25T14:13:29;6.53;;;1.55;;
26486;SDS011;14425;56.136;40.360;2023-04-25T14:15:55;8.40;;;1.85;;
26486;SDS011;14425;56.136;40.360;2023-04-25T14:18:21;3.63;;;1.67;;
26486;SDS011;14425;56.136;40.360;2023-04-25T14:20:46;5.93;;;1.70;;
26486;SDS011;14425;56.136;40.360;2023-04-25T14:23:13;5.53;;;1.58;;
26486;SDS011;14425;56.136;40.360;2023-04-25T14:25:39;10.43;;;3.35;;
26486;SDS011;14425;56.136;40.360;2023-04-25T14:28:05;2.15;;;1.60;;
26486;SDS011;14425;56.136;40.360;2023-04-25T14:30:31;9.40;;;2.88;;
26486;SDS011;14425;56.136;40.360;2023-04-25T14:32:56;4.95;;;2.08;;
26486;SDS011;14425;56.136;40.360;2023-04-25T14:35:22;10.90;;;2.88;;
26486;SDS011;14425;56.136;40.360;2023-04-25T14:37:48;3.42;;;1.60;;
26486;SDS011;14425;56.136;40.360;2023-04-25T14:40:13;5.13;;;1.98;;
26486;SDS011;14425;56.136;40.360;2023-04-25T14:42:40;5.68;;;1.80;;
26486;SDS011;14425;56.136;40.360;2023-04-25T14:45:06;7.22;;;2.30;;